Time;durP1;ratioP1;P1;durP2;ratioP2;P2;SDS_P1;SDS_P2;PMS_P1;PMS_P2;Temp;Humidity;BMP_temperature;BMP_pressure;BME280_temperature;BME280_humidity;BME280_pressure;Samples;Min_cycle;Max_cycle;Signal;HPM_P1;HPM_P2
2024/03/16 00:00:20;;;;;;;7.85;6.45;;;;;;;;;;1043506;28;20400;-71
2024/03/16 00:00:50;;;;;;;23.15;12.27;;;;;;;;;;1044349;28;20115;-71
2024/03/16 00:01:21;;;;;;;33.15;11.45;;;;;;;;;;1040804;28;20032;-73
2024/03/16 00:01:51;;;;;;;35.33;11.10;;;;;;;;;;1042754;28;20381;-73
2024/03/16 00:02:22;;;;;;;10.60;9.23;;;;;;;;;;1044638;28;20020;-73
2024/03/16 00:02:53;;;;;;;38.22;10.68;;;;;;;;;;1046495;28;20047;-73
2024/03/16 00:03:23;;;;;;;18.73;12.77;;;;;;;;;;1046146;28;20020;-73
2024/03/16 00:03:54;;;;;;;18.10;10.25;;;;;;;;;;1044516;28;20032;-73
2024/03/16 00:04:25;;;;;;;20.65;10.23;;;;;;;;;;1046367;28;20328;-73
2024/03/16 00:04:55;;;;;;;16.98;12.80;;;;;;;;;;1045217;28;20025;-73
2024/03/16 00:05:26;;;;;;;9.27;8.23;;;;;;;;;;1046324;28;20032;-73
2024/03/16 00:05:56;;;;;;;17.75;12.00;;;;;;;;;;1046023;28;20126;-73
2024/03/16 00:06:27;;;;;;;30.35;13.60;;;;;;;;;;1045603;28;20021;-73
2024/03/16 00:06:58;;;;;;;20.85;11.70;;;;;;;;;;1045828;28;20065;-73
2024/03/16 00:07:29;;;;;;;8.48;7.68;;;;;;;;;;1041256;28;20064;-73
2024/03/16 00:07:59;;;;;;;9.20;8.00;;;;;;;;;;1041533;28;20029;-73
2024/03/16 00:08:30;;;;;;;9.27;7.95;;;;;;;;;;1042030;28;20029;-73
2024/03/16 00:09:00;;;;;;;18.58;8.43;;;;;;;;;;1046097;28;20025;-73
2024/03/16 00:09:31;;;;;;;11.05;8.35;;;;;;;;;;1045857;28;20020;-74
2024/03/16 00:10:01;;;;;;;12.90;9.60;;;;;;;;;;1045783;28;20020;-73
2024/03/16 00:10:32;;;;;;;26.33;11.70;;;;;;;;;;1043607;28;20064;-72
2024/03/16 00:11:02;;;;;;;9.77;8.50;;;;;;;;;;1043800;28;20025;-72
2024/03/16 00:11:33;;;;;;;16.60;10.35;;;;;;;;;;1039576;28;20504;-73
2024/03/16 00:12:06;;;;;;;14.57;9.27;;;;;;;;;;1042008;28;20008;-72
2024/03/16 00:12:37;;;;;;;11.00;9.10;;;;;;;;;;1044974;28;20111;-72
2024/03/16 00:13:07;;;;;;;26.33;11.63;;;;;;;;;;1045253;28;20025;-72
2024/03/16 00:13:38;;;;;;;13.45;6.97;;;;;;;;;;1044854;28;20032;-72
2024/03/16 00:14:08;;;;;;;13.38;7.65;;;;;;;;;;1045706;28;20050;-72
2024/03/16 00:14:39;;;;;;;15.75;9.25;;;;;;;;;;1046468;28;20032;-72
2024/03/16 00:15:09;;;;;;;15.55;8.73;;;;;;;;;;1044764;28;20039;-72
2024/03/16 00:15:40;;;;;;;19.40;13.80;;;;;;;;;;1045737;28;20036;-72
2024/03/16 00:16:11;;;;;;;27.38;9.40;;;;;;;;;;1045694;28;20044;-72
2024/03/16 00:16:41;;;;;;;12.68;8.52;;;;;;;;;;1044602;28;20020;-72
2024/03/16 00:17:12;;;;;;;19.05;12.18;;;;;;;;;;1045413;28;20020;-72
2024/03/16 00:17:42;;;;;;;28.27;11.20;;;;;;;;;;1045424;28;20032;-72
2024/03/16 00:18:13;;;;;;;21.40;11.00;;;;;;;;;;1045695;28;20035;-72
2024/03/16 00:18:43;;;;;;;13.93;10.23;;;;;;;;;;1045395;28;20444;-72
2024/03/16 00:19:14;;;;;;;11.80;10.13;;;;;;;;;;1044518;28;20078;-72
2024/03/16 00:19:47;;;;;;;17.25;7.68;;;;;;;;;;1046240;28;20024;-72
2024/03/16 00:20:18;;;;;;;15.90;8.63;;;;;;;;;;1046676;28;20023;-72
2024/03/16 00:20:49;;;;;;;22.23;10.60;;;;;;;;;;1047097;28;20107;-72
2024/03/16 00:21:20;;;;;;;27.35;9.43;;;;;;;;;;1045443;28;20021;-72
2024/03/16 00:21:50;;;;;;;12.55;10.40;;;;;;;;;;1044620;28;20024;-72
2024/03/16 00:22:21;;;;;;;12.35;8.85;;;;;;;;;;1045582;28;20025;-72
2024/03/16 00:22:51;;;;;;;20.05;9.15;;;;;;;;;;1045534;28;20032;-72
2024/03/16 00:23:22;;;;;;;12.30;11.02;;;;;;;;;;1044463;28;20052;-72
2024/03/16 00:23:56;;;;;;;10.45;9.65;;;;;;;;;;1045475;28;20048;-72
2024/03/16 00:24:26;;;;;;;12.13;9.55;;;;;;;;;;1043457;28;20024;-72
2024/03/16 00:24:57;;;;;;;21.20;10.68;;;;;;;;;;1039008;28;20026;-72
2024/03/16 00:25:27;;;;;;;18.65;8.13;;;;;;;;;;1043534;28;20016;-72
2024/03/16 00:25:58;;;;;;;13.82;7.35;;;;;;;;;;1043939;28;20480;-72
2024/03/16 00:26:29;;;;;;;19.45;12.30;;;;;;;;;;1040781;28;20076;-72
2024/03/16 00:26:59;;;;;;;11.07;9.45;;;;;;;;;;1042122;28;20104;-72
2024/03/16 00:27:30;;;;;;;26.60;13.55;;;;;;;;;;1042836;28;20032;-72
2024/03/16 00:28:00;;;;;;;5.63;4.88;;;;;;;;;;1039780;28;20009;-72
2024/03/16 00:28:31;;;;;;;19.90;11.18;;;;;;;;;;1043691;28;20033;-72
2024/03/16 00:29:07;;;;;;;18.52;9.13;;;;;;;;;;1039472;28;20116;-72
2024/03/16 00:29:37;;;;;;;8.70;7.90;;;;;;;;;;1041151;28;20025;-72
2024/03/16 00:30:10;;;;;;;17.80;11.75;;;;;;;;;;1046732;28;20104;-72
2024/03/16 00:30:40;;;;;;;16.60;12.13;;;;;;;;;;1045794;28;20012;-72
2024/03/16 00:31:11;;;;;;;19.67;12.38;;;;;;;;;;1045411;28;20108;-72
2024/03/16 00:31:42;;;;;;;18.88;8.63;;;;;;;;;;1045480;28;20020;-72
2024/03/16 00:32:13;;;;;;;13.20;9.38;;;;;;;;;;1045740;28;20024;-72
2024/03/16 00:32:43;;;;;;;11.93;7.85;;;;;;;;;;1045599;28;20078;-72
2024/03/16 00:33:14;;;;;;;19.85;9.32;;;;;;;;;;1045319;28;20389;-72
2024/03/16 00:33:44;;;;;;;20.25;9.50;;;;;;;;;;1045701;28;20555;-72
2024/03/16 00:34:15;;;;;;;10.85;9.52;;;;;;;;;;1045998;28;20028;-72
2024/03/16 00:34:45;;;;;;;12.88;11.73;;;;;;;;;;1045950;28;20104;-72
2024/03/16 00:35:16;;;;;;;17.85;7.88;;;;;;;;;;1045942;28;20016;-72
2024/03/16 00:35:46;;;;;;;12.13;10.88;;;;;;;;;;1045727;28;20055;-72
2024/03/16 00:36:17;;;;;;;16.65;8.40;;;;;;;;;;1045855;28;20112;-72
2024/03/16 00:36:48;;;;;;;22.70;8.10;;;;;;;;;;1043636;28;20397;-72
2024/03/16 00:37:18;;;;;;;14.32;12.82;;;;;;;;;;1045972;28;20032;-72
2024/03/16 00:37:50;;;;;;;23.23;9.63;;;;;;;;;;1045668;28;20030;-72
2024/03/16 00:38:20;;;;;;;12.07;6.50;;;;;;;;;;1043879;28;20562;-72
2024/03/16 00:38:51;;;;;;;21.40;10.75;;;;;;;;;;1045517;28;20029;-72
2024/03/16 00:39:23;;;;;;;26.00;9.38;;;;;;;;;;1041422;28;20021;-72
2024/03/16 00:39:53;;;;;;;24.05;10.93;;;;;;;;;;1041114;28;20029;-72
2024/03/16 00:40:24;;;;;;;9.38;7.78;;;;;;;;;;1045511;28;20047;-72
2024/03/16 00:40:55;;;;;;;8.85;5.38;;;;;;;;;;1043753;28;20602;-72
2024/03/16 00:41:25;;;;;;;13.05;10.20;;;;;;;;;;1045815;28;20017;-72
2024/03/16 00:41:58;;;;;;;12.05;7.88;;;;;;;;;;1045875;28;20479;-72
2024/03/16 00:42:29;;;;;;;19.38;8.73;;;;;;;;;;1046014;28;20119;-72
2024/03/16 00:43:00;;;;;;;17.48;8.88;;;;;;;;;;1046335;28;20035;-72
2024/03/16 00:43:30;;;;;;;18.15;8.10;;;;;;;;;;1045812;28;20031;-72
2024/03/16 00:44:01;;;;;;;14.30;9.77;;;;;;;;;;1045409;28;20019;-72
2024/03/16 00:44:31;;;;;;;25.40;8.63;;;;;;;;;;1045533;28;20024;-72
2024/03/16 00:45:03;;;;;;;18.75;7.43;;;;;;;;;;1043737;28;20559;-72
2024/03/16 00:45:34;;;;;;;10.50;8.48;;;;;;;;;;1042871;28;20116;-72
2024/03/16 00:46:04;;;;;;;29.67;14.40;;;;;;;;;;1045426;28;20035;-72
2024/03/16 00:46:35;;;;;;;21.48;8.32;;;;;;;;;;1041702;28;20401;-72
2024/03/16 00:47:06;;;;;;;8.50;5.68;;;;;;;;;;1044310;28;20095;-72
2024/03/16 00:47:36;;;;;;;38.45;11.63;;;;;;;;;;1045425;28;20012;-72
2024/03/16 00:48:07;;;;;;;11.23;8.05;;;;;;;;;;1045491;28;20027;-72
2024/03/16 00:48:38;;;;;;;8.55;6.43;;;;;;;;;;1045695;28;20071;-72
2024/03/16 00:49:09;;;;;;;14.80;6.97;;;;;;;;;;1045365;28;20032;-72
2024/03/16 00:49:40;;;;;;;22.25;5.95;;;;;;;;;;1043203;28;20031;-72
2024/03/16 00:50:10;;;;;;;13.25;11.38;;;;;;;;;;1037767;28;20559;-72
2024/03/16 00:50:40;;;;;;;11.57;9.45;;;;;;;;;;1041059;28;20028;-72
2024/03/16 00:51:11;;;;;;;13.63;8.85;;;;;;;;;;1041279;28;20017;-72
2024/03/16 00:51:42;;;;;;;18.42;9.63;;;;;;;;;;1041145;28;20107;-72
2024/03/16 00:52:13;;;;;;;14.38;7.30;;;;;;;;;;1039917;28;20116;-72
2024/03/16 00:52:44;;;;;;;11.05;8.80;;;;;;;;;;1039022;28;20026;-72
2024/03/16 00:53:15;;;;;;;22.38;11.93;;;;;;;;;;1045377;28;20024;-72
2024/03/16 00:53:46;;;;;;;15.57;8.70;;;;;;;;;;1043858;28;20029;-72
2024/03/16 00:54:16;;;;;;;16.02;10.77;;;;;;;;;;1041260;28;20632;-72
2024/03/16 00:54:47;;;;;;;12.55;9.82;;;;;;;;;;1041543;28;20732;-72
2024/03/16 00:55:18;;;;;;;13.63;9.50;;;;;;;;;;1036863;28;20021;-72
2024/03/16 00:55:48;;;;;;;24.83;14.90;;;;;;;;;;1039538;28;20435;-72
2024/03/16 00:56:20;;;;;;;11.50;9.93;;;;;;;;;;1041448;28;20055;-72
2024/03/16 00:56:51;;;;;;;7.45;6.82;;;;;;;;;;1036918;28;20029;-72
2024/03/16 00:57:23;;;;;;;16.58;10.85;;;;;;;;;;1040673;28;20115;-72
2024/03/16 00:57:54;;;;;;;21.40;9.57;;;;;;;;;;1041319;28;20029;-72
2024/03/16 00:58:24;;;;;;;14.73;7.30;;;;;;;;;;1045824;28;20370;-72
2024/03/16 00:58:55;;;;;;;12.30;10.65;;;;;;;;;;1043998;28;20111;-72
2024/03/16 00:59:25;;;;;;;23.27;14.63;;;;;;;;;;1044901;28;20028;-72
2024/03/16 00:59:56;;;;;;;13.30;8.77;;;;;;;;;;1045899;28;20021;-72
2024/03/16 01:00:27;;;;;;;15.60;9.65;;;;;;;;;;1044357;28;20021;-72
2024/03/16 01:00:58;;;;;;;19.83;8.45;;;;;;;;;;1046502;28;20029;-72
2024/03/16 01:01:33;;;;;;;10.85;9.68;;;;;;;;;;1044146;28;20065;-72
2024/03/16 01:02:04;;;;;;;20.05;12.95;;;;;;;;;;1045321;28;20028;-72
2024/03/16 01:02:34;;;;;;;20.67;13.95;;;;;;;;;;1045946;28;20021;-72
2024/03/16 01:03:05;;;;;;;33.92;13.65;;;;;;;;;;1046043;28;20025;-72
2024/03/16 01:03:35;;;;;;;27.00;12.57;;;;;;;;;;1045550;28;20031;-72
2024/03/16 01:04:06;;;;;;;27.05;11.80;;;;;;;;;;1046122;28;20029;-72
2024/03/16 01:04:36;;;;;;;19.77;10.38;;;;;;;;;;1043732;28;20032;-72
2024/03/16 01:05:07;;;;;;;19.73;9.77;;;;;;;;;;1044979;28;20556;-72
2024/03/16 01:05:37;;;;;;;29.23;12.30;;;;;;;;;;1045264;28;20016;-72
2024/03/16 01:06:09;;;;;;;8.57;6.50;;;;;;;;;;1045156;28;20615;-72
2024/03/16 01:06:40;;;;;;;11.80;8.75;;;;;;;;;;1043500;28;20031;-72
2024/03/16 01:07:10;;;;;;;24.40;13.05;;;;;;;;;;1046038;28;20016;-72
2024/03/16 01:07:41;;;;;;;9.77;8.75;;;;;;;;;;1045917;28;20119;-72
2024/03/16 01:08:11;;;;;;;14.10;7.50;;;;;;;;;;1043817;28;20348;-72
2024/03/16 01:08:41;;;;;;;10.23;9.07;;;;;;;;;;1045781;28;20025;-72
2024/03/16 01:09:16;;;;;;;27.55;12.18;;;;;;;;;;1044780;28;20028;-72
2024/03/16 01:09:46;;;;;;;25.35;8.88;;;;;;;;;;1044244;28;20025;-72
2024/03/16 01:10:17;;;;;;;19.35;11.10;;;;;;;;;;1043167;28;20028;-72
2024/03/16 01:10:56;;;;;;;16.65;9.55;;;;;;;;;;1042837;28;20056;-72
2024/03/16 01:11:26;;;;;;;13.88;8.52;;;;;;;;;;1043714;28;20020;-72
2024/03/16 01:11:57;;;;;;;8.60;7.78;;;;;;;;;;1041042;28;20712;-72
2024/03/16 01:12:28;;;;;;;20.17;10.50;;;;;;;;;;1045699;28;20021;-72
2024/03/16 01:12:58;;;;;;;19.70;11.20;;;;;;;;;;1040033;28;20488;-74
2024/03/16 01:13:29;;;;;;;12.40;7.78;;;;;;;;;;1040658;28;20111;-74
2024/03/16 01:13:59;;;;;;;24.48;13.98;;;;;;;;;;1045699;28;20500;-73
2024/03/16 01:14:30;;;;;;;20.45;8.23;;;;;;;;;;1045449;28;20021;-73
2024/03/16 01:15:00;;;;;;;9.57;8.60;;;;;;;;;;1045224;28;20025;-73
2024/03/16 01:15:32;;;;;;;20.50;7.75;;;;;;;;;;1044878;28;20394;-73
2024/03/16 01:16:03;;;;;;;11.85;7.93;;;;;;;;;;1045001;28;20172;-73
2024/03/16 01:16:34;;;;;;;13.30;8.38;;;;;;;;;;1043108;28;20051;-73
2024/03/16 01:17:04;;;;;;;11.23;7.15;;;;;;;;;;1043356;28;20087;-73
2024/03/16 01:17:35;;;;;;;13.80;10.90;;;;;;;;;;1043304;28;20123;-73
2024/03/16 01:18:05;;;;;;;9.63;8.80;;;;;;;;;;1044157;28;20021;-73
2024/03/16 01:18:37;;;;;;;16.10;7.93;;;;;;;;;;1045924;28;20439;-73
2024/03/16 01:19:08;;;;;;;19.35;7.00;;;;;;;;;;1045779;28;20025;-73
2024/03/16 01:19:41;;;;;;;13.68;10.30;;;;;;;;;;1044933;28;20025;-73
2024/03/16 01:20:12;;;;;;;10.20;9.20;;;;;;;;;;1044866;28;20020;-73
2024/03/16 01:20:44;;;;;;;19.88;8.07;;;;;;;;;;1045931;28;20554;-73
2024/03/16 01:21:15;;;;;;;12.13;9.93;;;;;;;;;;1043172;28;20446;-73
2024/03/16 01:21:45;;;;;;;16.05;10.85;;;;;;;;;;1041468;28;20017;-73
2024/03/16 01:22:16;;;;;;;6.57;5.28;;;;;;;;;;1039777;28;20064;-73
2024/03/16 01:22:46;;;;;;;9.30;8.38;;;;;;;;;;1041900;28;20021;-73
2024/03/16 01:23:17;;;;;;;12.35;9.95;;;;;;;;;;1045551;28;20108;-73
2024/03/16 01:23:48;;;;;;;19.15;8.65;;;;;;;;;;1045497;28;20028;-73
2024/03/16 01:24:18;;;;;;;14.88;7.05;;;;;;;;;;1044655;28;20120;-72
2024/03/16 01:24:49;;;;;;;10.00;7.93;;;;;;;;;;1045308;28;20021;-71
2024/03/16 01:25:20;;;;;;;15.77;9.48;;;;;;;;;;1041545;28;20032;-71
2024/03/16 01:25:50;;;;;;;13.38;9.82;;;;;;;;;;1042257;28;20028;-73
2024/03/16 01:26:21;;;;;;;6.80;5.45;;;;;;;;;;1042045;28;20127;-72
2024/03/16 01:26:51;;;;;;;16.00;9.95;;;;;;;;;;1042128;28;20017;-72
2024/03/16 01:27:22;;;;;;;6.45;5.72;;;;;;;;;;1039884;28;20105;-71
2024/03/16 01:27:52;;;;;;;11.57;6.95;;;;;;;;;;1041058;28;20033;-71
2024/03/16 01:28:23;;;;;;;9.80;7.05;;;;;;;;;;1040527;28;20505;-71
2024/03/16 01:28:53;;;;;;;20.35;8.35;;;;;;;;;;1045590;28;20024;-71
2024/03/16 01:29:24;;;;;;;11.05;7.40;;;;;;;;;;1044424;28;20085;-71
2024/03/16 01:29:54;;;;;;;6.40;5.85;;;;;;;;;;1045663;28;20036;-71
2024/03/16 01:30:25;;;;;;;14.52;10.52;;;;;;;;;;1045717;28;20060;-71
2024/03/16 01:30:55;;;;;;;17.25;11.45;;;;;;;;;;1045525;28;20102;-71
2024/03/16 01:31:26;;;;;;;14.93;8.15;;;;;;;;;;1045511;28;20138;-73
2024/03/16 01:31:56;;;;;;;16.30;6.15;;;;;;;;;;1045954;28;20025;-70
2024/03/16 01:32:28;;;;;;;12.73;7.50;;;;;;;;;;1044786;28;20017;-71
2024/03/16 01:32:58;;;;;;;8.10;6.90;;;;;;;;;;1044128;28;20027;-71
2024/03/16 01:33:29;;;;;;;13.77;7.60;;;;;;;;;;1044894;28;20044;-71
2024/03/16 01:33:59;;;;;;;18.70;11.20;;;;;;;;;;1042482;28;20084;-73
2024/03/16 01:34:30;;;;;;;32.45;9.60;;;;;;;;;;1043058;28;20554;-71
2024/03/16 01:35:00;;;;;;;11.95;8.00;;;;;;;;;;1045109;28;20035;-73
2024/03/16 01:35:31;;;;;;;9.73;8.63;;;;;;;;;;1043746;28;20020;-71
2024/03/16 01:36:03;;;;;;;24.30;15.35;;;;;;;;;;1042587;28;20441;-72
2024/03/16 01:36:33;;;;;;;28.48;10.38;;;;;;;;;;1043850;28;20131;-71
2024/03/16 01:37:04;;;;;;;10.57;7.60;;;;;;;;;;1044815;28;20021;-72
2024/03/16 01:37:35;;;;;;;22.10;10.77;;;;;;;;;;1046377;28;20027;-73
2024/03/16 01:38:05;;;;;;;10.13;6.93;;;;;;;;;;1046458;28;20477;-74
2024/03/16 01:38:36;;;;;;;13.25;7.20;;;;;;;;;;1045255;28;20480;-71
2024/03/16 01:39:11;;;;;;;14.88;7.40;;;;;;;;;;1044581;28;20028;-72
2024/03/16 01:39:41;;;;;;;15.77;12.48;;;;;;;;;;1042907;28;20020;-71
2024/03/16 01:40:12;;;;;;;7.50;6.50;;;;;;;;;;1039264;28;20036;-73
2024/03/16 01:40:45;;;;;;;11.32;9.02;;;;;;;;;;1038968;28;20485;-73
2024/03/16 01:41:16;;;;;;;22.10;8.88;;;;;;;;;;1043687;28;20017;-73
2024/03/16 01:41:46;;;;;;;6.07;5.50;;;;;;;;;;1044771;28;20091;-73
2024/03/16 01:42:17;;;;;;;20.25;12.50;;;;;;;;;;1041171;28;20021;-73
2024/03/16 01:42:47;;;;;;;17.45;7.50;;;;;;;;;;1041824;28;20064;-73
2024/03/16 01:43:18;;;;;;;27.27;9.95;;;;;;;;;;1045533;28;20167;-73
2024/03/16 01:43:48;;;;;;;13.75;9.52;;;;;;;;;;1045198;28;20142;-73
2024/03/16 01:44:19;;;;;;;15.38;8.65;;;;;;;;;;1042742;28;20031;-73
2024/03/16 01:45:09;;;;;;;12.32;7.53;;;;;;;;;;1044387;28;20029;-73
2024/03/16 01:45:40;;;;;;;8.73;6.20;;;;;;;;;;1036402;28;20585;-73
2024/03/16 01:46:15;;;;;;;11.02;7.32;;;;;;;;;;1036293;28;20076;-73
2024/03/16 01:46:46;;;;;;;13.13;10.35;;;;;;;;;;1039148;28;20017;-73
2024/03/16 01:47:17;;;;;;;7.50;6.85;;;;;;;;;;1042120;28;20080;-73
2024/03/16 01:47:47;;;;;;;9.55;7.68;;;;;;;;;;1039910;28;20195;-73
2024/03/16 01:48:18;;;;;;;13.80;9.00;;;;;;;;;;1044817;28;20017;-73
2024/03/16 01:48:53;;;;;;;10.50;8.27;;;;;;;;;;1044430;28;20075;-73
2024/03/16 01:49:23;;;;;;;10.77;8.57;;;;;;;;;;1041568;28;20060;-73
2024/03/16 01:49:54;;;;;;;19.42;7.55;;;;;;;;;;1043000;28;20021;-73
2024/03/16 01:50:24;;;;;;;8.77;7.90;;;;;;;;;;1042782;28;20095;-73
2024/03/16 01:50:55;;;;;;;11.88;8.82;;;;;;;;;;1039219;28;20488;-73
2024/03/16 01:51:25;;;;;;;11.70;10.57;;;;;;;;;;1038082;28;20058;-73
2024/03/16 01:51:56;;;;;;;10.00;6.45;;;;;;;;;;1040196;28;20026;-73
2024/03/16 01:52:26;;;;;;;14.63;7.25;;;;;;;;;;1036425;28;20473;-73
2024/03/16 01:52:57;;;;;;;6.35;5.72;;;;;;;;;;1040030;28;20071;-74
2024/03/16 01:53:27;;;;;;;13.05;7.60;;;;;;;;;;1041475;28;20036;-73
2024/03/16 01:53:58;;;;;;;15.13;7.75;;;;;;;;;;1045449;28;20090;-73
2024/03/16 01:54:28;;;;;;;9.95;6.22;;;;;;;;;;1045408;28;20032;-73
2024/03/16 01:54:59;;;;;;;27.52;9.70;;;;;;;;;;1045735;28;20157;-73
2024/03/16 01:55:30;;;;;;;14.90;10.52;;;;;;;;;;1045101;28;20051;-73
2024/03/16 01:56:00;;;;;;;16.85;10.32;;;;;;;;;;1043364;28;20024;-73
2024/03/16 01:56:37;;;;;;;11.15;7.28;;;;;;;;;;1044292;28;20025;-73
2024/03/16 01:57:07;;;;;;;12.38;11.10;;;;;;;;;;1044326;28;20025;-73
2024/03/16 01:57:38;;;;;;;22.63;9.20;;;;;;;;;;1046082;28;20028;-73
2024/03/16 01:58:09;;;;;;;8.32;5.88;;;;;;;;;;1043701;28;20029;-73
2024/03/16 01:58:43;;;;;;;12.20;9.93;;;;;;;;;;1046054;28;20029;-73
2024/03/16 01:59:13;;;;;;;19.73;11.90;;;;;;;;;;1044738;28;20020;-73
2024/03/16 01:59:44;;;;;;;9.85;8.85;;;;;;;;;;1044774;28;20071;-73
2024/03/16 02:00:15;;;;;;;14.35;7.97;;;;;;;;;;1045485;28;20028;-73
2024/03/16 02:00:47;;;;;;;15.05;8.82;;;;;;;;;;1047228;28;20030;-73
2024/03/16 02:01:17;;;;;;;22.20;9.93;;;;;;;;;;1045377;28;20537;-73
2024/03/16 02:01:48;;;;;;;18.92;8.85;;;;;;;;;;1045792;28;20021;-74
2024/03/16 02:02:32;;;;;;;16.20;8.85;;;;;;;;;;1046170;28;20036;-73
2024/03/16 02:03:03;;;;;;;3.03;2.78;;;;;;;;;;1044247;28;20020;-73
2024/03/16 02:03:33;;;;;;;13.95;8.18;;;;;;;;;;1047135;28;20027;-73
2024/03/16 02:04:04;;;;;;;16.60;7.95;;;;;;;;;;1045274;28;20159;-73
2024/03/16 02:04:34;;;;;;;40.72;10.23;;;;;;;;;;1046150;28;20495;-73
2024/03/16 02:05:05;;;;;;;25.90;9.48;;;;;;;;;;1045899;28;20057;-73
2024/03/16 02:05:36;;;;;;;15.70;9.25;;;;;;;;;;1044812;28;20512;-72
2024/03/16 02:06:06;;;;;;;13.27;9.75;;;;;;;;;;1045823;28;20021;-72
2024/03/16 02:06:40;;;;;;;20.90;5.70;;;;;;;;;;1044987;28;20029;-72
2024/03/16 02:07:12;;;;;;;26.38;8.75;;;;;;;;;;1046943;28;20023;-72
2024/03/16 02:07:44;;;;;;;20.55;13.48;;;;;;;;;;1047259;28;20035;-72
2024/03/16 02:08:15;;;;;;;26.27;11.93;;;;;;;;;;1044120;28;20021;-72
2024/03/16 02:08:46;;;;;;;27.15;9.70;;;;;;;;;;1045524;28;20481;-72
2024/03/16 02:09:16;;;;;;;13.88;7.88;;;;;;;;;;1045345;28;20020;-72
2024/03/16 02:09:47;;;;;;;7.97;7.03;;;;;;;;;;1044013;28;20550;-72
2024/03/16 02:10:18;;;;;;;14.73;10.00;;;;;;;;;;1044125;28;20562;-72
2024/03/16 02:10:48;;;;;;;10.73;9.43;;;;;;;;;;1043861;28;20033;-72
2024/03/16 02:11:19;;;;;;;19.65;8.95;;;;;;;;;;1041901;28;20021;-72
2024/03/16 02:11:50;;;;;;;28.23;11.18;;;;;;;;;;1045513;28;20047;-72
2024/03/16 02:12:20;;;;;;;28.15;12.52;;;;;;;;;;1045803;28;20472;-73
2024/03/16 02:12:51;;;;;;;19.33;11.10;;;;;;;;;;1045616;28;20025;-72
2024/03/16 02:13:21;;;;;;;24.73;14.85;;;;;;;;;;1043482;28;20150;-72
2024/03/16 02:13:52;;;;;;;13.45;6.25;;;;;;;;;;1042460;28;20476;-72
2024/03/16 02:14:22;;;;;;;21.23;9.20;;;;;;;;;;1043885;28;20024;-72
2024/03/16 02:14:56;;;;;;;20.23;11.73;;;;;;;;;;1038060;28;21387;-72
2024/03/16 02:15:26;;;;;;;29.67;14.63;;;;;;;;;;1039778;28;20100;-72
2024/03/16 02:15:57;;;;;;;19.27;11.48;;;;;;;;;;1040441;28;20028;-72
2024/03/16 02:16:28;;;;;;;11.93;9.18;;;;;;;;;;1042556;28;20060;-72
2024/03/16 02:16:59;;;;;;;33.75;14.02;;;;;;;;;;1043285;28;20029;-72
2024/03/16 02:17:30;;;;;;;16.27;10.57;;;;;;;;;;1043767;28;20640;-72
2024/03/16 02:18:01;;;;;;;40.42;9.80;;;;;;;;;;1045132;28;20590;-72
2024/03/16 02:18:31;;;;;;;16.38;10.10;;;;;;;;;;1043650;28;20473;-72
2024/03/16 02:19:02;;;;;;;13.68;10.32;;;;;;;;;;1046145;28;20404;-72
2024/03/16 02:19:32;;;;;;;25.10;11.20;;;;;;;;;;1040998;28;20029;-72
2024/03/16 02:20:04;;;;;;;13.85;10.57;;;;;;;;;;1036583;28;20028;-72
2024/03/16 02:20:37;;;;;;;20.50;11.18;;;;;;;;;;1037036;28;20564;-72
2024/03/16 02:21:09;;;;;;;5.97;5.55;;;;;;;;;;1039311;28;20057;-72
2024/03/16 02:21:40;;;;;;;18.83;10.40;;;;;;;;;;1037247;28;20021;-72
2024/03/16 02:22:10;;;;;;;13.30;9.90;;;;;;;;;;1042119;28;20024;-72
2024/03/16 02:22:41;;;;;;;19.70;14.55;;;;;;;;;;1044320;28;20025;-72
2024/03/16 02:23:11;;;;;;;12.68;8.60;;;;;;;;;;1044200;28;20135;-71
2024/03/16 02:23:42;;;;;;;8.10;7.10;;;;;;;;;;1039896;28;20067;-72
2024/03/16 02:24:13;;;;;;;15.20;9.15;;;;;;;;;;1045676;28;20021;-72
2024/03/16 02:24:44;;;;;;;11.07;10.00;;;;;;;;;;1045188;28;20112;-72
2024/03/16 02:25:14;;;;;;;24.92;13.40;;;;;;;;;;1044122;28;20025;-72
2024/03/16 02:25:45;;;;;;;10.65;7.63;;;;;;;;;;1046318;28;20017;-72
2024/03/16 02:26:16;;;;;;;12.27;8.25;;;;;;;;;;1045084;28;20496;-72
2024/03/16 02:26:47;;;;;;;12.80;7.20;;;;;;;;;;1044614;28;20131;-72
2024/03/16 02:27:19;;;;;;;16.23;12.40;;;;;;;;;;1043671;28;20761;-72
2024/03/16 02:27:50;;;;;;;24.88;9.13;;;;;;;;;;1041678;28;20036;-72
2024/03/16 02:28:21;;;;;;;7.07;6.38;;;;;;;;;;1040793;28;20067;-74
2024/03/16 02:28:51;;;;;;;24.30;11.20;;;;;;;;;;1040619;28;20022;-73
2024/03/16 02:29:22;;;;;;;13.32;12.02;;;;;;;;;;1045921;28;20017;-73
2024/03/16 02:29:53;;;;;;;15.95;8.75;;;;;;;;;;1044722;28;20066;-73
2024/03/16 02:30:24;;;;;;;9.75;7.80;;;;;;;;;;1046164;28;20025;-73
2024/03/16 02:30:55;;;;;;;26.70;13.63;;;;;;;;;;1045844;28;20666;-73
2024/03/16 02:31:26;;;;;;;14.32;8.73;;;;;;;;;;1045242;28;20017;-72
2024/03/16 02:31:56;;;;;;;18.92;9.02;;;;;;;;;;1045840;28;20369;-73
2024/03/16 02:32:27;;;;;;;21.35;9.27;;;;;;;;;;1046168;28;20017;-73
2024/03/16 02:32:57;;;;;;;13.43;6.93;;;;;;;;;;1044872;28;20476;-73
2024/03/16 02:33:28;;;;;;;9.52;7.45;;;;;;;;;;1047661;28;20024;-73
2024/03/16 02:33:59;;;;;;;13.32;7.35;;;;;;;;;;1044261;28;20060;-73
2024/03/16 02:34:31;;;;;;;9.68;7.10;;;;;;;;;;1045120;28;20028;-73
2024/03/16 02:35:01;;;;;;;16.10;9.35;;;;;;;;;;1041766;28;20564;-73
2024/03/16 02:35:32;;;;;;;19.27;9.80;;;;;;;;;;1043892;28;20028;-73
2024/03/16 02:36:03;;;;;;;26.85;13.52;;;;;;;;;;1045478;28;20035;-73
2024/03/16 02:36:34;;;;;;;28.70;13.23;;;;;;;;;;1042534;28;20048;-73
2024/03/16 02:37:05;;;;;;;14.85;8.95;;;;;;;;;;1044957;28;20131;-73
2024/03/16 02:37:36;;;;;;;7.18;6.15;;;;;;;;;;1045762;28;20036;-73
2024/03/16 02:38:07;;;;;;;12.68;5.88;;;;;;;;;;1039206;28;20034;-73
2024/03/16 02:38:40;;;;;;;24.60;8.05;;;;;;;;;;1041674;28;20541;-73
2024/03/16 02:39:11;;;;;;;16.02;8.38;;;;;;;;;;1040637;28;20029;-73
2024/03/16 02:39:41;;;;;;;8.73;6.00;;;;;;;;;;1041953;28;20065;-73
2024/03/16 02:40:12;;;;;;;17.95;10.85;;;;;;;;;;1046510;28;20442;-72
2024/03/16 02:40:42;;;;;;;20.98;8.55;;;;;;;;;;1049140;28;20114;-73
2024/03/16 02:41:13;;;;;;;9.98;8.48;;;;;;;;;;1045861;28;20025;-73
2024/03/16 02:41:43;;;;;;;11.88;10.50;;;;;;;;;;1046051;28;20035;-73
2024/03/16 02:42:14;;;;;;;15.30;8.57;;;;;;;;;;1046580;28;20563;-73
2024/03/16 02:42:45;;;;;;;10.00;7.13;;;;;;;;;;1046828;28;20030;-73
2024/03/16 02:43:15;;;;;;;14.95;10.05;;;;;;;;;;1053240;22;20410;-74
2024/03/16 02:43:46;;;;;;;10.82;9.80;;;;;;;;;;1039198;28;20119;-73
2024/03/16 02:44:16;;;;;;;10.32;7.88;;;;;;;;;;1039647;28;20049;-73
2024/03/16 02:44:47;;;;;;;24.13;11.52;;;;;;;;;;1040225;28;20087;-72
2024/03/16 02:45:17;;;;;;;19.67;9.85;;;;;;;;;;1040034;28;20096;-73
2024/03/16 02:45:48;;;;;;;20.70;11.32;;;;;;;;;;1040092;28;20036;-73
2024/03/16 02:46:18;;;;;;;4.78;4.43;;;;;;;;;;1040125;28;20022;-73
2024/03/16 02:46:49;;;;;;;27.13;10.40;;;;;;;;;;1037785;28;20021;-73
2024/03/16 02:47:20;;;;;;;9.00;5.88;;;;;;;;;;1035841;28;20568;-73
2024/03/16 02:47:51;;;;;;;11.25;6.68;;;;;;;;;;1033758;28;20047;-74
2024/03/16 02:48:21;;;;;;;24.25;16.08;;;;;;;;;;1035768;28;20030;-73
2024/03/16 02:48:52;;;;;;;17.53;10.60;;;;;;;;;;1038699;28;20029;-72
2024/03/16 02:49:23;;;;;;;13.35;10.20;;;;;;;;;;1034756;28;20026;-73
2024/03/16 02:49:54;;;;;;;19.20;11.40;;;;;;;;;;1039469;28;20029;-72
2024/03/16 02:50:24;;;;;;;22.98;6.72;;;;;;;;;;1034070;28;20026;-71
2024/03/16 02:50:55;;;;;;;10.43;8.77;;;;;;;;;;1035637;28;20038;-72
2024/03/16 02:51:25;;;;;;;8.75;7.93;;;;;;;;;;1035155;28;20037;-73
2024/03/16 02:51:56;;;;;;;4.93;4.43;;;;;;;;;;1033045;28;20041;-73
2024/03/16 02:52:27;;;;;;;6.82;5.75;;;;;;;;;;1032573;28;20089;-73
2024/03/16 02:52:58;;;;;;;20.52;9.35;;;;;;;;;;1033604;28;20025;-74
2024/03/16 02:53:28;;;;;;;6.85;4.97;;;;;;;;;;1038012;28;20029;-73
2024/03/16 02:53:59;;;;;;;9.15;8.25;;;;;;;;;;1037559;28;20064;-74
2024/03/16 02:54:30;;;;;;;9.13;5.72;;;;;;;;;;1038595;28;20040;-72
2024/03/16 02:55:01;;;;;;;5.57;5.15;;;;;;;;;;1036732;28;20524;-72
2024/03/16 02:55:31;;;;;;;6.45;3.75;;;;;;;;;;1035990;28;20021;-72
2024/03/16 02:56:02;;;;;;;9.75;8.00;;;;;;;;;;1038255;28;20112;-73
2024/03/16 02:56:33;;;;;;;13.65;7.20;;;;;;;;;;1039810;28;20431;-72
2024/03/16 02:57:03;;;;;;;6.43;5.65;;;;;;;;;;1039200;28;20124;-72
2024/03/16 02:57:34;;;;;;;10.38;9.32;;;;;;;;;;1039129;28;20025;-73
2024/03/16 02:58:04;;;;;;;8.73;7.57;;;;;;;;;;1039537;28;20075;-73
2024/03/16 02:58:35;;;;;;;9.90;8.57;;;;;;;;;;1039208;28;20448;-73
2024/03/16 02:59:05;;;;;;;8.68;6.82;;;;;;;;;;1038325;28;20025;-73
2024/03/16 02:59:36;;;;;;;7.97;7.07;;;;;;;;;;1039441;28;20029;-73
2024/03/16 03:00:10;;;;;;;10.85;8.57;;;;;;;;;;1039859;28;20087;-73
2024/03/16 03:00:41;;;;;;;11.52;6.63;;;;;;;;;;1039975;28;20029;-72
2024/03/16 03:01:11;;;;;;;5.90;4.80;;;;;;;;;;1039880;28;20013;-72
2024/03/16 03:01:42;;;;;;;9.35;4.53;;;;;;;;;;1039303;28;20021;-73
2024/03/16 03:02:12;;;;;;;8.45;7.63;;;;;;;;;;1039637;28;20523;-73
2024/03/16 03:02:43;;;;;;;18.23;10.40;;;;;;;;;;1038286;28;20013;-73